Stonehaven, United Kingdom
Current Conditions -  °F | °C
As of 12:20 PM on Thursday 29 Jan 2015 (Local Time) from EGPD Reporting Station
Clear Clear  
Wind Chill: 33°   Ceiling: Unl
Heat Index: 39°   Visibility: 6mi
Dew Point: 27°   Wind: 9mph
Humidity: 61%   Direction: 290°WNW
Pressure: 28.64"   Gusts: NA
Location:  56.96°N, 2.21°W
Report Text: EGPD 291220Z 29008KT 250V320 CAVOK 04/M03 Q0970 NOSIG
Loading
Personal Weather Stations






























Interactive Weather Map New forecast layout! Learn more

10-Day Weather Forecast

Advertisements
Track Severe Weather on mobile